createdAt,value
2023-04-01T00:02:36.578Z,1.35
2023-04-01T00:06:38.458Z,1.00
2023-04-01T00:10:40.557Z,0.88
2023-04-01T00:14:42.292Z,1.00
2023-04-01T00:18:43.989Z,1.00
2023-04-01T00:22:45.670Z,0.80
2023-04-01T00:26:48.908Z,0.90
2023-04-01T00:30:50.680Z,0.98
2023-04-01T00:34:52.891Z,0.95
2023-04-01T00:38:54.765Z,1.00
2023-04-01T00:42:56.851Z,0.80
2023-04-01T00:46:58.798Z,0.80
2023-04-01T00:51:12.192Z,0.90
2023-04-01T00:55:16.850Z,0.70
2023-04-01T00:59:24.637Z,0.88
2023-04-01T01:03:26.495Z,1.00
2023-04-01T01:07:43.270Z,0.73
2023-04-01T01:12:14.985Z,0.90
2023-04-01T01:16:30.278Z,0.75
2023-04-01T01:20:45.287Z,0.90
2023-04-01T01:25:17.511Z,0.80
2023-04-01T01:29:25.604Z,0.90
2023-04-01T01:34:24.989Z,0.80
2023-04-01T01:38:32.181Z,0.82
2023-04-01T01:42:44.264Z,0.80
2023-04-01T01:46:46.577Z,0.70
2023-04-01T01:50:50.011Z,0.70
2023-04-01T01:54:54.033Z,0.70
2023-04-01T01:59:11.644Z,0.80
2023-04-01T02:03:15.600Z,0.90
2023-04-01T02:07:23.287Z,0.85
2023-04-01T02:11:36.177Z,0.70
2023-04-01T02:15:44.160Z,0.60
2023-04-01T02:19:58.367Z,0.80
2023-04-01T02:24:05.480Z,0.80
2023-04-01T02:28:11.118Z,0.70
2023-04-01T02:32:14.431Z,0.80
2023-04-01T02:36:17.412Z,0.70
2023-04-01T02:40:20.120Z,0.82
2023-04-01T02:44:22.006Z,0.70
2023-04-01T02:48:23.921Z,0.80
2023-04-01T02:52:26.711Z,0.80
2023-04-01T02:56:28.601Z,0.80
2023-04-01T03:00:30.637Z,0.70
2023-04-01T03:04:32.533Z,0.60
2023-04-01T03:08:34.584Z,0.93
2023-04-01T03:12:37.042Z,0.80
2023-04-01T03:16:38.975Z,0.80
2023-04-01T03:20:41.018Z,0.70
2023-04-01T03:24:43.141Z,0.93
2023-04-01T03:28:45.396Z,0.88
2023-04-01T03:32:47.872Z,0.90
2023-04-01T03:36:49.953Z,0.93
2023-04-01T03:40:51.881Z,0.80
2023-04-01T03:44:54.281Z,0.70
2023-04-01T03:48:56.593Z,0.90
2023-04-01T03:52:59.303Z,0.80
2023-04-01T03:57:01.563Z,0.82
2023-04-01T04:01:04.004Z,0.70
2023-04-01T04:05:07.995Z,0.80
2023-04-01T04:09:10.538Z,0.70
2023-04-01T04:13:12.608Z,0.80
2023-04-01T04:17:21.110Z,0.70
2023-04-01T04:21:23.297Z,0.80
2023-04-01T04:25:25.475Z,0.80
2023-04-01T04:29:27.936Z,0.80
2023-04-01T04:33:29.954Z,0.90
2023-04-01T04:37:31.827Z,0.80
2023-04-01T04:41:35.376Z,0.63
2023-04-01T04:45:39.561Z,0.90
2023-04-01T04:49:41.538Z,0.70
2023-04-01T04:53:46.121Z,0.77
2023-04-01T04:57:48.237Z,0.90
2023-04-01T05:01:50.014Z,0.90
2023-04-01T05:05:54.511Z,0.70
2023-04-01T05:09:56.339Z,0.82
2023-04-01T05:13:58.281Z,1.00
2023-04-01T05:18:00.207Z,1.00
2023-04-01T05:22:02.226Z,0.80
2023-04-01T05:26:10.313Z,0.80
2023-04-01T05:30:12.852Z,0.70
2023-04-01T05:34:19.674Z,0.70
2023-04-01T05:38:21.545Z,0.80
2023-04-01T05:42:23.297Z,0.70
2023-04-01T05:46:25.122Z,0.73
2023-04-01T05:50:47.140Z,0.70
2023-04-01T05:54:49.196Z,0.70
2023-04-01T05:58:55.424Z,0.90
2023-04-01T06:03:02.268Z,0.80
2023-04-01T06:07:17.171Z,0.70
2023-04-01T06:11:31.370Z,0.90
2023-04-01T06:15:55.145Z,0.75
2023-04-01T06:20:17.522Z,0.70
2023-04-01T06:24:25.893Z,0.65
2023-04-01T06:28:40.310Z,0.90
2023-04-01T06:33:07.236Z,0.80
2023-04-01T06:37:24.215Z,0.80
2023-04-01T06:41:34.756Z,0.90
2023-04-01T06:45:46.184Z,0.80
2023-04-01T06:50:31.690Z,1.00
2023-04-01T06:55:02.267Z,0.70
2023-04-01T06:59:38.951Z,0.80
2023-04-01T07:03:50.883Z,0.90
2023-04-01T07:07:58.178Z,1.05
2023-04-01T07:12:07.218Z,0.80
2023-04-01T07:16:50.245Z,0.80
2023-04-01T07:20:53.105Z,0.80
2023-04-01T07:24:59.017Z,0.90
2023-04-01T07:29:01.372Z,0.80
2023-04-01T07:33:42.605Z,0.90
2023-04-01T07:38:13.728Z,0.80
2023-04-01T07:42:15.682Z,1.10
2023-04-01T07:46:32.695Z,1.00
2023-04-01T07:50:59.192Z,1.50
2023-04-01T07:55:06.054Z,1.10
2023-04-01T07:59:55.958Z,0.90
2023-04-01T08:04:16.715Z,0.80
2023-04-01T08:08:33.696Z,0.70
2023-04-01T08:13:18.696Z,0.90
2023-04-01T08:17:54.084Z,0.80
2023-04-01T08:22:05.457Z,1.02
2023-04-01T08:26:30.605Z,0.80
2023-04-01T08:30:42.097Z,0.82
2023-04-01T08:34:48.329Z,0.80
2023-04-01T08:39:07.970Z,1.00
2023-04-01T08:43:34.987Z,0.70
2023-04-01T08:48:02.153Z,0.90
2023-04-01T08:52:23.280Z,0.70
2023-04-01T08:56:34.664Z,0.70
2023-04-01T09:00:50.616Z,0.60
2023-04-01T09:05:27.570Z,0.80
2023-04-01T09:09:51.242Z,0.90
2023-04-01T09:14:08.621Z,0.80
2023-04-01T09:18:56.391Z,0.70
2023-04-01T09:23:38.731Z,0.63
2023-04-01T09:28:12.570Z,0.82
2023-04-01T09:32:49.189Z,0.88
2023-04-01T09:37:22.850Z,0.90
2023-04-01T09:41:40.753Z,0.80
2023-04-01T09:46:16.370Z,0.90
2023-04-01T09:50:47.586Z,0.82
2023-04-01T09:55:28.008Z,0.80
2023-04-01T10:00:07.459Z,0.85
2023-04-01T10:04:42.431Z,0.80
2023-04-01T10:08:56.192Z,0.70
2023-04-01T10:13:30.140Z,0.90
2023-04-01T10:17:56.706Z,0.70
2023-04-01T10:22:12.658Z,0.80
2023-04-01T10:26:42.192Z,0.90
2023-04-01T10:31:47.123Z,0.70
2023-04-01T10:36:09.019Z,0.70
2023-04-01T10:40:23.636Z,0.85
2023-04-01T10:44:56.142Z,0.68
2023-04-01T10:49:28.568Z,0.90
2023-04-01T10:53:40.407Z,0.70
2023-04-01T10:58:06.601Z,0.60
2023-04-01T11:02:58.618Z,0.70
2023-04-01T11:07:42.275Z,0.60
2023-04-01T11:12:29.092Z,0.70
2023-04-01T11:16:37.126Z,0.77
2023-04-01T11:20:57.977Z,0.80
2023-04-01T11:25:36.175Z,0.70
2023-04-01T11:30:12.190Z,0.80
2023-04-01T11:34:26.096Z,0.73
2023-04-01T11:39:05.627Z,1.35
2023-04-01T11:43:58.966Z,1.42
2023-04-01T11:48:45.549Z,2.55
2023-04-01T11:53:05.989Z,1.00
2023-04-01T11:57:49.443Z,0.90
2023-04-01T12:02:07.984Z,0.90
2023-04-01T12:06:27.111Z,0.80
2023-04-01T12:10:43.043Z,0.73
2023-04-01T12:15:03.222Z,0.80
2023-04-01T12:19:35.353Z,0.80
2023-04-01T12:24:00.742Z,0.80
2023-04-01T12:28:19.414Z,0.70
2023-04-01T12:32:48.124Z,0.68
2023-04-01T12:37:14.630Z,0.80
2023-04-01T12:41:19.341Z,0.90
2023-04-01T12:45:32.598Z,0.82
2023-04-01T12:49:46.710Z,0.70
2023-04-01T12:54:19.244Z,0.82
2023-04-01T12:58:50.061Z,0.70
2023-04-01T13:03:21.319Z,0.80
2023-04-01T13:07:43.409Z,0.70
2023-04-01T13:12:11.688Z,0.90
2023-04-01T13:16:22.389Z,0.80
2023-04-01T13:20:42.803Z,0.80
2023-04-01T13:25:07.032Z,0.70
2023-04-01T13:29:17.854Z,0.70
2023-04-01T13:33:43.119Z,0.60
2023-04-01T13:38:04.628Z,0.70
2023-04-01T13:42:25.959Z,0.90
2023-04-01T13:46:52.544Z,0.70
2023-04-01T13:51:15.524Z,0.70
2023-04-01T13:55:23.070Z,0.90
2023-04-01T13:59:33.520Z,0.80
2023-04-01T14:04:09.007Z,0.90
2023-04-01T14:08:47.992Z,0.70
2023-04-01T14:13:14.556Z,0.90
2023-04-01T14:17:22.955Z,0.90
2023-04-01T14:21:54.250Z,0.90
2023-04-01T14:26:11.278Z,1.00
2023-04-01T14:30:36.521Z,0.70
2023-04-01T14:34:59.575Z,0.70
2023-04-01T14:39:24.880Z,0.90
2023-04-01T14:43:46.208Z,0.80
2023-04-01T14:48:06.851Z,0.80
2023-04-01T14:52:32.876Z,0.90
2023-04-01T14:56:43.656Z,0.80
2023-04-01T15:00:57.019Z,0.70
2023-04-01T15:05:08.189Z,0.90
2023-04-01T15:09:18.722Z,0.80
2023-04-01T15:13:23.169Z,0.70
2023-04-01T15:17:43.086Z,0.80
2023-04-01T15:22:02.985Z,0.95
2023-04-01T15:26:17.180Z,0.77
2023-04-01T15:30:18.931Z,1.00
2023-04-01T15:34:42.719Z,0.93
2023-04-01T15:38:53.975Z,0.98
2023-04-01T15:43:01.807Z,1.10
2023-04-01T15:47:23.465Z,1.00
2023-04-01T15:51:25.162Z,0.90
2023-04-01T15:55:41.806Z,1.08
2023-04-01T16:00:21.533Z,0.97
2023-04-01T16:04:33.697Z,0.93
2023-04-01T16:08:41.335Z,1.23
2023-04-01T16:13:04.274Z,1.63
2023-04-01T16:17:28.530Z,1.25
2023-04-01T16:21:48.692Z,1.60
2023-04-01T16:26:04.596Z,1.30
2023-04-01T16:30:33.285Z,1.40
2023-04-01T16:35:05.767Z,2.40
2023-04-01T16:39:07.442Z,1.20
2023-04-01T16:43:20.774Z,1.20
2023-04-01T16:47:33.870Z,1.13
2023-04-01T16:51:39.336Z,1.20
2023-04-01T16:55:49.909Z,1.40
2023-04-01T17:00:23.563Z,1.10
2023-04-01T17:04:33.747Z,1.17
2023-04-01T17:08:41.745Z,1.00
2023-04-01T17:12:55.658Z,1.17
2023-04-01T17:17:21.391Z,1.20
2023-04-01T17:21:28.220Z,1.10
2023-04-01T17:25:39.583Z,1.10
2023-04-01T17:30:11.641Z,1.08
2023-04-01T17:34:25.954Z,1.00
2023-04-01T17:38:58.966Z,1.20
2023-04-01T17:43:22.258Z,1.00
2023-04-01T17:47:40.802Z,1.20
2023-04-01T17:52:17.807Z,1.30
2023-04-01T17:56:36.420Z,1.10
2023-04-01T18:00:54.005Z,1.10
2023-04-01T18:05:04.869Z,1.30
2023-04-01T18:09:16.667Z,1.40
2023-04-01T18:13:38.021Z,1.30
2023-04-01T18:17:51.191Z,1.20
2023-04-01T18:22:11.955Z,1.15
2023-04-01T18:26:35.694Z,1.40
2023-04-01T18:30:39.391Z,1.13
2023-04-01T18:35:15.534Z,1.30
2023-04-01T18:39:30.027Z,1.10
2023-04-01T18:43:40.821Z,1.17
2023-04-01T18:47:49.827Z,1.02
2023-04-01T18:51:59.064Z,1.10
2023-04-01T18:56:04.548Z,1.27
2023-04-01T19:00:20.729Z,1.20
2023-04-01T19:04:38.994Z,1.20
2023-04-01T19:08:42.192Z,1.08
2023-04-01T19:13:09.570Z,1.20
2023-04-01T19:17:41.424Z,1.15
2023-04-01T19:21:54.036Z,1.13
2023-04-01T19:26:01.564Z,1.00
2023-04-01T19:30:13.308Z,1.13
2023-04-01T19:34:15.027Z,1.20
2023-04-01T19:38:52.195Z,1.10
2023-04-01T19:43:26.068Z,1.10
2023-04-01T19:47:53.963Z,1.05
2023-04-01T19:52:01.651Z,1.20
2023-04-01T19:56:15.429Z,1.27
2023-04-01T20:00:32.743Z,1.00
2023-04-01T20:08:49.914Z,1.48
2023-04-01T20:13:07.888Z,1.33
2023-04-01T20:17:24.465Z,1.30
2023-04-01T20:21:32.261Z,1.30
2023-04-01T20:25:44.413Z,1.38
2023-04-01T20:30:23.210Z,1.08
2023-04-01T20:34:52.200Z,1.30
2023-04-01T20:39:31.776Z,1.65
2023-04-01T20:44:13.407Z,1.30
2023-04-01T20:48:45.500Z,1.40
2023-04-01T20:53:06.679Z,1.23
2023-04-01T20:57:31.097Z,1.05
2023-04-01T21:01:59.112Z,1.20
2023-04-01T21:06:13.550Z,1.20
2023-04-01T21:10:36.563Z,1.00
2023-04-01T21:15:03.721Z,1.13
2023-04-01T21:19:24.015Z,1.08
2023-04-01T21:23:56.919Z,1.00
2023-04-01T21:28:21.899Z,1.30
2023-04-01T21:32:44.925Z,1.27
2023-04-01T21:37:00.416Z,1.00
2023-04-01T21:41:16.877Z,1.25
2023-04-01T21:45:35.173Z,1.30
2023-04-01T21:49:50.927Z,1.02
2023-04-01T21:54:16.609Z,1.10
2023-04-01T21:58:39.541Z,1.13
2023-04-01T22:03:04.277Z,1.08
2023-04-01T22:07:32.532Z,1.00
2023-04-01T22:12:08.976Z,1.00
2023-04-01T22:16:19.977Z,1.00
2023-04-01T22:20:41.045Z,1.00
2023-04-01T22:24:49.421Z,1.05
2023-04-01T22:29:06.710Z,1.17
2023-04-01T22:33:17.662Z,1.10
2023-04-01T22:37:38.385Z,1.10
2023-04-01T22:41:50.020Z,1.00
2023-04-01T22:46:13.600Z,0.93
2023-04-01T22:50:21.671Z,0.90
2023-04-01T22:54:44.358Z,1.20
2023-04-01T22:58:57.629Z,1.10
2023-04-01T23:03:22.928Z,1.10
2023-04-01T23:07:47.960Z,1.10
2023-04-01T23:12:08.360Z,1.00
2023-04-01T23:16:11.465Z,0.90
2023-04-01T23:20:22.732Z,1.17
2023-04-01T23:24:37.019Z,1.15
2023-04-01T23:28:49.507Z,1.00
2023-04-01T23:32:51.392Z,1.10
2023-04-01T23:36:57.341Z,1.00
2023-04-01T23:40:59.302Z,1.00
2023-04-01T23:45:18.218Z,0.98
2023-04-01T23:49:29.552Z,1.10
2023-04-01T23:53:35.013Z,1.20
2023-04-01T23:57:38.077Z,1.33
